Time;durP1;ratioP1;P1;durP2;ratioP2;P2;SDS_P1;SDS_P2;PMS_P1;PMS_P2;Temp;Humidity;BMP_temperature;BMP_pressure;BME280_temperature;BME280_humidity;BME280_pressure;Samples;Min_cycle;Max_cycle;Signal;HPM_P1;HPM_P2
2021/05/30 00:06:36;;;;;;;15.17;11.60;;;;;;;9.91;74.52;98968.81;511612;1099;103605;-43
2021/05/30 00:16:42;;;;;;;14.13;10.83;;;;;;;10.00;74.74;98962.25;511422;1104;103548;-42
2021/05/30 00:26:49;;;;;;;14.67;12.37;;;;;;;9.96;74.42;98964.52;511568;1100;103195;-42
2021/05/30 00:36:55;;;;;;;15.30;12.27;;;;;;;10.03;74.90;98961.81;511404;1104;103168;-43
2021/05/30 00:47:01;;;;;;;13.85;11.20;;;;;;;10.08;74.50;98959.31;511412;1100;103528;-42
2021/05/30 00:57:07;;;;;;;22.23;14.70;;;;;;;9.80;75.00;98950.02;511472;1100;103170;-40
2021/05/30 01:07:16;;;;;;;19.63;14.40;;;;;;;9.73;74.87;98951.11;511430;1104;103514;-40
2021/05/30 01:17:22;;;;;;;21.73;16.50;;;;;;;9.82;75.26;98952.45;511415;1104;103531;-41
2021/05/30 01:27:27;;;;;;;21.27;15.67;;;;;;;9.83;75.40;98949.59;511452;1099;103266;-41
2021/05/30 01:37:34;;;;;;;24.40;17.30;;;;;;;9.85;75.39;98959.93;511482;1104;103471;-42
2021/05/30 01:47:42;;;;;;;24.20;16.83;;;;;;;9.79;75.94;98956.33;511569;1104;103227;-41
2021/05/30 01:57:51;;;;;;;22.17;16.27;;;;;;;9.79;76.51;98961.61;511328;1100;103230;-41
2021/05/30 02:07:57;;;;;;;23.98;16.63;;;;;;;9.83;76.46;98967.27;511462;1104;103231;-42
2021/05/30 02:18:04;;;;;;;19.95;16.45;;;;;;;9.84;76.61;98969.69;511376;1099;103116;-41
2021/05/30 02:28:10;;;;;;;18.87;14.20;;;;;;;9.76;76.98;98969.97;511441;1104;103548;-41
2021/05/30 02:38:16;;;;;;;19.25;15.40;;;;;;;9.73;77.09;98977.52;511348;1104;103538;-41
2021/05/30 02:48:23;;;;;;;16.20;12.60;;;;;;;9.73;76.92;98988.89;511273;1100;103557;-41
2021/05/30 02:58:31;;;;;;;15.03;12.70;;;;;;;9.67;77.30;98995.00;511355;1104;103121;-42
2021/05/30 03:08:37;;;;;;;17.47;12.07;;;;;;;9.67;77.44;99002.13;511307;1104;103148;-41
2021/05/30 03:18:43;;;;;;;14.57;11.90;;;;;;;9.60;77.51;99004.81;511459;1104;103217;-41
2021/05/30 03:28:50;;;;;;;15.67;10.67;;;;;;;9.52;78.09;99003.25;511469;1104;103265;-41
2021/05/30 03:49:17;;;;;;;15.53;13.23;;;;;;;9.45;78.61;99013.03;511542;1100;103237;-41
2021/05/30 03:59:23;;;;;;;16.07;13.07;;;;;;;9.44;78.72;99015.88;511519;1100;104650;-41
2021/05/30 04:19:50;;;;;;;15.20;13.60;;;;;;;9.61;78.96;99018.83;511566;1104;103397;-42
2021/05/30 04:29:56;;;;;;;18.23;12.87;;;;;;;9.71;78.83;99022.63;511590;1104;103568;-42
2021/05/30 04:40:02;;;;;;;13.93;12.43;;;;;;;9.67;78.93;99037.25;511372;1104;103573;-41
2021/05/30 04:50:10;;;;;;;15.47;13.43;;;;;;;9.73;78.76;99043.53;511443;1100;103569;-41
2021/05/30 05:00:17;;;;;;;15.87;12.30;;;;;;;9.79;79.43;99042.67;511565;1104;103195;-42
2021/05/30 05:10:23;;;;;;;14.33;12.33;;;;;;;10.12;79.12;99042.41;511489;1100;103238;-42
2021/05/30 05:20:29;;;;;;;14.67;12.87;;;;;;;10.52;78.94;99042.88;511413;1105;103109;-42
2021/05/30 05:30:36;;;;;;;18.45;14.00;;;;;;;10.58;78.76;99054.41;511415;1104;103197;-42
2021/05/30 05:40:42;;;;;;;14.17;12.73;;;;;;;10.56;79.27;99059.11;511450;1100;103218;-41
2021/05/30 05:50:48;;;;;;;16.53;14.63;;;;;;;10.79;79.06;99061.92;511445;1104;103135;-41
2021/05/30 06:00:54;;;;;;;19.17;15.00;;;;;;;10.74;79.05;99080.30;511323;1104;103910;-42
2021/05/30 06:11:00;;;;;;;18.70;12.57;;;;;;;10.54;79.28;99091.06;511674;1100;103202;-43
2021/05/30 06:21:04;;;;;;;12.43;11.23;;;;;;;10.47;79.43;99102.73;511467;1104;103198;-41
2021/05/30 06:31:10;;;;;;;13.03;10.23;;;;;;;10.34;79.06;99114.22;511378;1104;103691;-42
2021/05/30 06:41:17;;;;;;;13.95;11.85;;;;;;;10.73;79.09;99116.52;511405;1099;103528;-41
2021/05/30 06:51:28;;;;;;;18.53;15.33;;;;;;;11.41;78.92;99117.41;511426;1100;103550;-41
2021/05/30 07:01:34;;;;;;;21.15;17.25;;;;;;;11.73;78.17;99118.80;511373;1099;103199;-42
2021/05/30 07:11:42;;;;;;;12.37;11.27;;;;;;;12.28;78.08;99124.73;511330;1104;103208;-40
2021/05/30 07:21:48;;;;;;;12.10;10.75;;;;;;;12.18;77.72;99128.98;511598;1104;103499;-42
2021/05/30 07:31:54;;;;;;;13.03;11.83;;;;;;;13.29;77.52;99121.97;511481;1100;103202;-41
2021/05/30 07:42:01;;;;;;;13.33;10.90;;;;;;;13.97;76.17;99124.59;511457;1104;103528;-42
2021/05/30 07:52:07;;;;;;;7.13;6.00;;;;;;;13.82;75.01;99130.43;511228;1104;103194;-41
2021/05/30 08:02:13;;;;;;;9.50;8.60;;;;;;;13.69;75.09;99132.55;511469;1099;103537;-42
2021/05/30 08:12:26;;;;;;;8.30;7.30;;;;;;;13.42;74.09;99149.05;511566;1104;103169;-41
2021/05/30 08:22:33;;;;;;;8.40;7.60;;;;;;;14.61;73.73;99134.95;511497;1099;103103;-41
2021/05/30 08:32:40;;;;;;;9.00;7.70;;;;;;;14.54;72.11;99144.95;511620;1104;103626;-41
2021/05/30 08:42:46;;;;;;;10.50;6.10;;;;;;;14.21;72.20;99143.08;511401;1104;103172;-42
2021/05/30 08:52:54;;;;;;;10.30;7.03;;;;;;;14.21;72.09;99143.88;511321;1104;103169;-42
2021/05/30 09:03:11;;;;;;;7.60;6.97;;;;;;;13.93;71.60;99151.87;511357;1099;103525;-40
2021/05/30 09:13:17;;;;;;;8.25;7.45;;;;;;;13.94;72.00;99164.11;511472;1104;103173;-41
2021/05/30 09:23:29;;;;;;;5.50;4.57;;;;;;;14.70;71.87;99146.81;511526;1100;103251;-41
2021/05/30 09:33:36;;;;;;;5.20;4.07;;;;;;;15.11;70.39;99145.50;511507;1104;103480;-42
2021/05/30 09:43:49;;;;;;;3.07;2.87;;;;;;;15.39;69.17;99143.75;511450;1104;103566;-40
2021/05/30 09:53:54;;;;;;;4.73;4.17;;;;;;;15.67;68.42;99145.44;511498;1099;103525;-41
2021/05/30 10:04:00;;;;;;;3.90;3.50;;;;;;;16.42;66.91;99133.87;511598;1104;103445;-40
2021/05/30 10:14:06;;;;;;;4.80;4.37;;;;;;;15.16;66.95;99153.59;511373;1104;103240;-40
2021/05/30 10:24:13;;;;;;;5.30;4.10;;;;;;;14.52;67.94;99157.70;511521;1099;103531;-41
2021/05/30 10:34:25;;;;;;;8.00;5.80;;;;;;;14.86;68.01;99153.14;511555;1100;103168;-40
2021/05/30 10:44:52;;;;;;;5.07;4.20;;;;;;;15.92;67.93;99162.50;511350;1104;103174;-41
2021/05/30 10:55:08;;;;;;;6.87;3.10;;;;;;;14.93;66.95;99159.94;511546;1099;103221;-41
2021/05/30 11:05:46;;;;;;;2.65;2.45;;;;;;;14.41;66.97;99162.81;511396;1104;103179;-41
2021/05/30 11:16:06;;;;;;;4.60;2.80;;;;;;;14.58;67.09;99172.70;511562;1100;104406;-42
2021/05/30 11:26:12;;;;;;;2.80;2.60;;;;;;;14.62;66.55;99179.14;511348;1104;103546;-41
2021/05/30 11:36:27;;;;;;;5.00;3.00;;;;;;;14.83;65.70;99178.41;511444;1104;103572;-42
2021/05/30 11:46:32;;;;;;;2.20;1.80;;;;;;;14.98;64.34;99181.30;511456;1104;103178;-41
2021/05/30 11:56:42;;;;;;;2.00;1.70;;;;;;;15.14;63.85;99181.50;511407;1104;103235;-41
2021/05/30 12:06:48;;;;;;;3.23;2.40;;;;;;;15.23;62.48;99188.03;511583;1104;103167;-41
2021/05/30 12:16:54;;;;;;;3.60;1.95;;;;;;;15.39;62.35;99179.20;511356;1100;103170;-41
2021/05/30 12:27:01;;;;;;;2.53;2.33;;;;;;;15.79;61.72;99180.75;511303;1098;103174;-42
2021/05/30 12:37:08;;;;;;;3.63;2.80;;;;;;;15.99;61.99;99170.30;511340;1104;103465;-41
2021/05/30 12:47:16;;;;;;;2.15;1.95;;;;;;;15.91;60.04;99173.42;511325;1104;103247;-41
2021/05/30 12:57:32;;;;;;;5.30;2.43;;;;;;;15.63;60.63;99169.13;511455;1104;103541;-41
2021/05/30 13:07:43;;;;;;;4.73;2.90;;;;;;;15.69;60.69;99159.31;511594;1104;104356;-41
2021/05/30 13:28:29;;;;;;;10.23;4.87;;;;;;;15.92;61.14;99156.37;511515;1104;103230;-42
2021/05/30 13:38:36;;;;;;;2.93;2.60;;;;;;;16.08;60.17;99163.44;511465;1100;103463;-42
2021/05/30 13:48:43;;;;;;;7.00;3.20;;;;;;;16.20;60.34;99150.77;511494;1100;103470;-42
2021/05/30 13:58:49;;;;;;;4.83;3.10;;;;;;;16.48;60.01;99148.85;511433;1104;103195;-40
2021/05/30 14:19:16;;;;;;;3.37;2.40;;;;;;;16.13;56.18;99136.03;511361;1104;103164;-43
2021/05/30 14:29:23;;;;;;;8.50;3.10;;;;;;;16.12;54.31;99137.09;511384;1104;104615;-40
2021/05/30 14:39:29;;;;;;;3.30;1.70;;;;;;;16.12;54.98;99137.09;511342;1104;103234;-42
2021/05/30 14:49:35;;;;;;;2.53;2.23;;;;;;;16.04;55.38;99124.99;511412;1104;103655;-42
2021/05/30 14:59:41;;;;;;;3.70;2.83;;;;;;;16.12;55.77;99121.08;511346;1100;103528;-44
2021/05/30 15:09:47;;;;;;;4.43;2.63;;;;;;;15.80;54.93;99127.16;511388;1104;103145;-41
2021/05/30 15:19:53;;;;;;;3.13;2.83;;;;;;;15.41;55.32;99126.45;511541;1104;103240;-42
2021/05/30 15:29:59;;;;;;;2.30;2.10;;;;;;;15.42;55.96;99135.26;511406;1104;103566;-42
2021/05/30 15:40:09;;;;;;;3.70;2.47;;;;;;;15.39;56.26;99128.56;511438;1104;103200;-41
2021/05/30 15:50:13;;;;;;;;;;;;;;;15.45;55.00;99116.91;511586;1104;103189;-42
2021/05/30 16:00:21;;;;;;;4.20;3.20;;;;;;;15.56;54.80;99123.14;511527;1100;103173;-42
2021/05/30 16:10:26;;;;;;;4.15;2.25;;;;;;;15.69;53.57;99125.46;511550;1104;103246;-41
2021/05/30 16:20:33;;;;;;;4.03;2.70;;;;;;;16.00;54.39;99115.09;511575;1099;103209;-42
2021/05/30 16:30:39;;;;;;;4.63;2.97;;;;;;;16.05;52.78;99115.94;511467;1104;103177;-40
2021/05/30 16:40:45;;;;;;;2.73;2.30;;;;;;;15.82;53.52;99121.58;511465;1099;103201;-42
2021/05/30 17:01:13;;;;;;;2.40;2.17;;;;;;;15.33;53.63;99145.52;511450;1104;103578;-43
2021/05/30 17:11:19;;;;;;;6.57;4.40;;;;;;;14.88;54.23;99154.52;511491;1104;103164;-40
2021/05/30 17:21:26;;;;;;;2.03;1.83;;;;;;;14.41;55.09;99157.49;511330;1100;103168;-42
2021/05/30 17:31:32;;;;;;;4.33;2.20;;;;;;;13.92;55.80;99150.25;511330;1104;103553;-43
2021/05/30 17:41:39;;;;;;;3.43;2.57;;;;;;;13.58;56.09;99158.14;511395;1104;103170;-41
2021/05/30 18:02:18;;;;;;;5.40;4.10;;;;;;;13.22;57.29;99143.31;511575;1104;103560;-42
2021/05/30 18:12:24;;;;;;;4.40;3.40;;;;;;;13.08;57.87;99148.06;511580;1100;103177;-42
2021/05/30 18:22:30;;;;;;;11.07;7.63;;;;;;;12.91;58.53;99157.77;511438;1104;103164;-43
2021/05/30 18:32:35;;;;;;;10.10;5.67;;;;;;;12.64;58.61;99160.07;511414;1104;103174;-41
2021/05/30 18:42:43;;;;;;;19.73;8.50;;;;;;;12.54;59.21;99162.50;511265;1099;103273;-44
2021/05/30 18:52:49;;;;;;;22.90;11.55;;;;;;;12.58;60.49;99183.03;511405;1104;103195;-42
2021/05/30 19:02:55;;;;;;;17.53;10.33;;;;;;;12.43;61.10;99187.14;511338;1100;103259;-41
2021/05/30 19:13:02;;;;;;;18.60;8.03;;;;;;;12.12;61.27;99193.52;511306;1104;103531;-42
2021/05/30 19:23:09;;;;;;;30.80;14.20;;;;;;;11.80;61.79;99192.91;511611;1104;103227;-42
2021/05/30 19:33:16;;;;;;;16.97;10.90;;;;;;;11.59;62.60;99191.51;511512;1100;103254;-42
2021/05/30 19:43:22;;;;;;;18.60;10.65;;;;;;;11.71;63.18;99202.99;511528;1100;103287;-42
2021/05/30 19:53:28;;;;;;;14.57;8.57;;;;;;;11.83;63.69;99208.36;511390;1104;103208;-42
2021/05/30 20:03:34;;;;;;;47.10;17.00;;;;;;;11.83;63.86;99211.85;511465;1104;103222;-42
2021/05/30 20:13:43;;;;;;;27.33;11.23;;;;;;;11.80;63.98;99216.77;511483;1099;103198;-42
2021/05/30 20:23:49;;;;;;;13.80;7.10;;;;;;;11.71;64.44;99216.23;511495;1104;103128;-42
2021/05/30 20:33:55;;;;;;;12.60;6.50;;;;;;;11.62;64.56;99209.64;511442;1104;103198;-41
2021/05/30 20:44:01;;;;;;;12.40;6.10;;;;;;;11.63;64.82;99212.06;511359;1104;103199;-43
2021/05/30 20:54:08;;;;;;;11.47;5.50;;;;;;;11.63;64.64;99211.25;511534;1104;103211;-41
2021/05/30 21:04:13;;;;;;;11.65;6.40;;;;;;;11.59;64.98;99204.75;511347;1104;103220;-42
2021/05/30 21:14:20;;;;;;;13.90;7.20;;;;;;;11.51;65.17;99197.12;511518;1099;103200;-42
2021/05/30 21:24:26;;;;;;;15.73;7.67;;;;;;;11.44;65.67;99206.98;511424;1104;104315;-42
2021/05/30 21:34:32;;;;;;;14.93;7.93;;;;;;;11.42;65.65;99201.91;511356;1104;103173;-43
2021/05/30 21:44:40;;;;;;;11.73;6.13;;;;;;;11.43;66.15;99208.83;511339;1100;103196;-42
2021/05/30 21:54:47;;;;;;;14.30;7.50;;;;;;;11.43;66.40;99213.31;511620;1104;103192;-42
2021/05/30 22:04:54;;;;;;;8.27;6.47;;;;;;;11.20;66.53;99206.02;511415;1104;103227;-42
2021/05/30 22:15:01;;;;;;;8.70;6.23;;;;;;;11.00;66.39;99203.56;511355;1104;103531;-42
2021/05/30 22:25:09;;;;;;;13.47;5.83;;;;;;;10.90;66.26;99201.42;511338;1104;103502;-42
2021/05/30 22:35:15;;;;;;;6.97;5.10;;;;;;;10.86;66.98;99196.77;511390;1100;103455;-42
2021/05/30 22:45:22;;;;;;;12.47;5.60;;;;;;;10.78;67.11;99194.41;511302;1104;103538;-42
2021/05/30 22:55:28;;;;;;;15.70;7.50;;;;;;;10.67;67.72;99203.87;511529;1099;103315;-43
2021/05/30 23:05:33;;;;;;;17.73;7.67;;;;;;;10.57;68.07;99203.52;511462;1099;103458;-42
2021/05/30 23:15:39;;;;;;;9.97;6.40;;;;;;;10.66;68.15;99197.77;511461;1104;103291;-42
2021/05/30 23:25:46;;;;;;;15.40;6.80;;;;;;;10.75;68.02;99188.52;511288;1099;103464;-42
2021/05/30 23:35:52;;;;;;;14.35;7.85;;;;;;;10.67;68.29;99190.64;511301;1100;103470;-43
2021/05/30 23:45:58;;;;;;;9.60;6.95;;;;;;;10.48;68.57;99178.38;511356;1100;103248;-44
2021/05/30 23:56:04;;;;;;;13.37;7.30;;;;;;;10.27;68.93;99176.91;511410;1104;103164;-42
